sensor_id;sensor_type;location;lat;lon;timestamp;P1;durP1;ratioP1;P2;durP2;ratioP2
42866;SDS011;39461;40.948;73.006;2023-05-07T00:00:54;40.53;;;7.63;;
42866;SDS011;39461;40.948;73.006;2023-05-07T00:03:27;26.75;;;6.65;;
42866;SDS011;39461;40.948;73.006;2023-05-07T00:06:00;29.48;;;6.65;;
42866;SDS011;39461;40.948;73.006;2023-05-07T00:08:33;23.77;;;6.10;;
42866;SDS011;39461;40.948;73.006;2023-05-07T00:11:06;27.73;;;6.22;;
42866;SDS011;39461;40.948;73.006;2023-05-07T00:13:44;30.48;;;7.13;;
42866;SDS011;39461;40.948;73.006;2023-05-07T00:16:29;36.22;;;7.32;;
42866;SDS011;39461;40.948;73.006;2023-05-07T00:19:03;33.67;;;7.03;;
42866;SDS011;39461;40.948;73.006;2023-05-07T00:21:40;32.50;;;8.07;;
42866;SDS011;39461;40.948;73.006;2023-05-07T00:27:15;27.58;;;7.38;;
42866;SDS011;39461;40.948;73.006;2023-05-07T00:29:50;38.05;;;7.85;;
42866;SDS011;39461;40.948;73.006;2023-05-07T00:32:25;25.05;;;6.20;;
42866;SDS011;39461;40.948;73.006;2023-05-07T00:35:00;26.15;;;7.32;;
42866;SDS011;39461;40.948;73.006;2023-05-07T00:37:35;30.63;;;6.65;;
42866;SDS011;39461;40.948;73.006;2023-05-07T00:40:10;25.63;;;6.18;;
42866;SDS011;39461;40.948;73.006;2023-05-07T00:42:39;32.85;;;6.75;;
42866;SDS011;39461;40.948;73.006;2023-05-07T00:45:19;22.48;;;6.68;;
42866;SDS011;39461;40.948;73.006;2023-05-07T00:47:53;30.35;;;6.50;;
42866;SDS011;39461;40.948;73.006;2023-05-07T00:50:33;36.45;;;7.03;;
42866;SDS011;39461;40.948;73.006;2023-05-07T00:53:08;36.00;;;9.50;;
42866;SDS011;39461;40.948;73.006;2023-05-07T00:55:43;32.47;;;7.80;;
42866;SDS011;39461;40.948;73.006;2023-05-07T00:58:19;34.80;;;9.50;;
42866;SDS011;39461;40.948;73.006;2023-05-07T01:00:54;36.30;;;9.45;;
42866;SDS011;39461;40.948;73.006;2023-05-07T01:03:29;29.50;;;8.68;;
42866;SDS011;39461;40.948;73.006;2023-05-07T01:06:04;30.23;;;9.23;;
42866;SDS011;39461;40.948;73.006;2023-05-07T01:08:39;27.65;;;8.00;;
42866;SDS011;39461;40.948;73.006;2023-05-07T01:11:13;31.30;;;9.00;;
42866;SDS011;39461;40.948;73.006;2023-05-07T01:13:46;30.05;;;7.28;;
42866;SDS011;39461;40.948;73.006;2023-05-07T01:16:20;36.50;;;8.32;;
42866;SDS011;39461;40.948;73.006;2023-05-07T01:18:53;26.83;;;7.40;;
42866;SDS011;39461;40.948;73.006;2023-05-07T01:21:27;35.67;;;8.32;;
42866;SDS011;39461;40.948;73.006;2023-05-07T01:24:06;29.65;;;7.22;;
42866;SDS011;39461;40.948;73.006;2023-05-07T01:26:39;28.00;;;7.63;;
42866;SDS011;39461;40.948;73.006;2023-05-07T01:29:19;33.78;;;8.13;;
42866;SDS011;39461;40.948;73.006;2023-05-07T01:31:52;25.98;;;6.50;;
42866;SDS011;39461;40.948;73.006;2023-05-07T01:34:26;34.03;;;6.93;;
42866;SDS011;39461;40.948;73.006;2023-05-07T01:37:00;26.40;;;5.95;;
42866;SDS011;39461;40.948;73.006;2023-05-07T01:39:40;24.17;;;6.55;;
42866;SDS011;39461;40.948;73.006;2023-05-07T01:42:18;25.25;;;6.70;;
42866;SDS011;39461;40.948;73.006;2023-05-07T01:44:51;34.38;;;7.18;;
42866;SDS011;39461;40.948;73.006;2023-05-07T01:47:24;31.23;;;7.70;;
42866;SDS011;39461;40.948;73.006;2023-05-07T01:49:57;30.02;;;6.45;;
42866;SDS011;39461;40.948;73.006;2023-05-07T01:52:31;27.65;;;6.93;;
42866;SDS011;39461;40.948;73.006;2023-05-07T01:55:05;28.67;;;8.00;;
42866;SDS011;39461;40.948;73.006;2023-05-07T01:57:38;34.83;;;9.68;;
42866;SDS011;39461;40.948;73.006;2023-05-07T02:00:13;31.50;;;9.30;;
42866;SDS011;39461;40.948;73.006;2023-05-07T02:02:47;44.40;;;11.18;;
42866;SDS011;39461;40.948;73.006;2023-05-07T02:08:50;33.97;;;10.05;;
42866;SDS011;39461;40.948;73.006;2023-05-07T02:11:26;43.55;;;13.70;;
42866;SDS011;39461;40.948;73.006;2023-05-07T02:13:59;37.65;;;11.65;;
42866;SDS011;39461;40.948;73.006;2023-05-07T02:16:32;45.10;;;13.82;;
42866;SDS011;39461;40.948;73.006;2023-05-07T02:19:07;35.67;;;7.57;;
42866;SDS011;39461;40.948;73.006;2023-05-07T02:21:40;29.20;;;7.38;;
42866;SDS011;39461;40.948;73.006;2023-05-07T02:24:13;23.25;;;6.70;;
42866;SDS011;39461;40.948;73.006;2023-05-07T02:26:47;28.63;;;7.10;;
42866;SDS011;39461;40.948;73.006;2023-05-07T02:29:24;45.15;;;7.97;;
42866;SDS011;39461;40.948;73.006;2023-05-07T02:31:57;34.25;;;7.63;;
42866;SDS011;39461;40.948;73.006;2023-05-07T02:34:32;41.75;;;8.75;;
42866;SDS011;39461;40.948;73.006;2023-05-07T02:37:05;43.85;;;9.82;;
42866;SDS011;39461;40.948;73.006;2023-05-07T02:39:37;27.15;;;7.78;;
42866;SDS011;39461;40.948;73.006;2023-05-07T02:42:04;35.42;;;7.25;;
42866;SDS011;39461;40.948;73.006;2023-05-07T02:44:37;33.58;;;6.53;;
42866;SDS011;39461;40.948;73.006;2023-05-07T02:47:17;36.58;;;6.78;;
42866;SDS011;39461;40.948;73.006;2023-05-07T02:49:50;30.67;;;6.93;;
42866;SDS011;39461;40.948;73.006;2023-05-07T02:52:25;33.35;;;7.00;;
42866;SDS011;39461;40.948;73.006;2023-05-07T02:54:58;21.83;;;6.13;;
42866;SDS011;39461;40.948;73.006;2023-05-07T02:57:31;39.67;;;7.05;;
42866;SDS011;39461;40.948;73.006;2023-05-07T03:00:11;29.77;;;6.65;;
42866;SDS011;39461;40.948;73.006;2023-05-07T03:02:44;47.30;;;7.15;;
42866;SDS011;39461;40.948;73.006;2023-05-07T03:05:17;29.17;;;6.55;;
42866;SDS011;39461;40.948;73.006;2023-05-07T03:07:50;34.90;;;6.85;;
42866;SDS011;39461;40.948;73.006;2023-05-07T03:10:23;28.88;;;6.82;;
42866;SDS011;39461;40.948;73.006;2023-05-07T03:12:56;28.77;;;6.22;;
42866;SDS011;39461;40.948;73.006;2023-05-07T03:15:29;30.20;;;7.00;;
42866;SDS011;39461;40.948;73.006;2023-05-07T03:18:02;24.40;;;6.97;;
42866;SDS011;39461;40.948;73.006;2023-05-07T03:20:35;32.35;;;7.90;;
42866;SDS011;39461;40.948;73.006;2023-05-07T03:23:09;29.13;;;6.85;;
42866;SDS011;39461;40.948;73.006;2023-05-07T03:25:42;27.38;;;7.20;;
42866;SDS011;39461;40.948;73.006;2023-05-07T03:28:15;27.45;;;6.68;;
42866;SDS011;39461;40.948;73.006;2023-05-07T03:30:48;37.72;;;7.55;;
42866;SDS011;39461;40.948;73.006;2023-05-07T03:33:23;25.63;;;7.53;;
42866;SDS011;39461;40.948;73.006;2023-05-07T03:35:56;32.42;;;7.22;;
42866;SDS011;39461;40.948;73.006;2023-05-07T03:38:29;29.27;;;7.90;;
42866;SDS011;39461;40.948;73.006;2023-05-07T03:41:02;33.38;;;8.25;;
42866;SDS011;39461;40.948;73.006;2023-05-07T03:43:36;32.47;;;9.00;;
42866;SDS011;39461;40.948;73.006;2023-05-07T03:46:09;29.58;;;8.13;;
42866;SDS011;39461;40.948;73.006;2023-05-07T03:48:44;32.53;;;8.15;;
42866;SDS011;39461;40.948;73.006;2023-05-07T03:51:24;36.78;;;8.95;;
42866;SDS011;39461;40.948;73.006;2023-05-07T03:54:03;52.20;;;10.25;;
42866;SDS011;39461;40.948;73.006;2023-05-07T03:56:36;42.13;;;9.45;;
42866;SDS011;39461;40.948;73.006;2023-05-07T03:59:09;30.10;;;9.30;;
42866;SDS011;39461;40.948;73.006;2023-05-07T04:01:44;27.83;;;8.65;;
42866;SDS011;39461;40.948;73.006;2023-05-07T04:04:17;29.90;;;8.05;;
42866;SDS011;39461;40.948;73.006;2023-05-07T04:06:51;38.60;;;8.48;;
42866;SDS011;39461;40.948;73.006;2023-05-07T04:09:24;31.10;;;8.10;;
42866;SDS011;39461;40.948;73.006;2023-05-07T04:11:57;34.63;;;9.88;;
42866;SDS011;39461;40.948;73.006;2023-05-07T04:14:33;38.63;;;9.98;;
42866;SDS011;39461;40.948;73.006;2023-05-07T04:17:06;34.72;;;8.07;;
42866;SDS011;39461;40.948;73.006;2023-05-07T04:19:41;21.83;;;7.30;;
42866;SDS011;39461;40.948;73.006;2023-05-07T04:22:16;27.85;;;8.15;;
42866;SDS011;39461;40.948;73.006;2023-05-07T04:24:49;28.60;;;7.80;;
42866;SDS011;39461;40.948;73.006;2023-05-07T04:27:22;27.40;;;7.40;;
42866;SDS011;39461;40.948;73.006;2023-05-07T04:29:56;25.50;;;7.82;;
42866;SDS011;39461;40.948;73.006;2023-05-07T04:32:35;17.67;;;6.45;;
42866;SDS011;39461;40.948;73.006;2023-05-07T04:35:10;27.05;;;7.43;;
42866;SDS011;39461;40.948;73.006;2023-05-07T04:37:43;25.30;;;7.13;;
42866;SDS011;39461;40.948;73.006;2023-05-07T04:40:18;27.17;;;6.88;;
42866;SDS011;39461;40.948;73.006;2023-05-07T04:42:47;31.05;;;8.57;;
42866;SDS011;39461;40.948;73.006;2023-05-07T04:45:25;38.95;;;8.43;;
42866;SDS011;39461;40.948;73.006;2023-05-07T04:47:53;26.40;;;7.13;;
42866;SDS011;39461;40.948;73.006;2023-05-07T04:50:28;32.55;;;7.90;;
42866;SDS011;39461;40.948;73.006;2023-05-07T04:53:04;36.05;;;9.15;;
42866;SDS011;39461;40.948;73.006;2023-05-07T04:58:38;41.90;;;9.65;;
42866;SDS011;39461;40.948;73.006;2023-05-07T05:01:13;23.55;;;8.23;;
42866;SDS011;39461;40.948;73.006;2023-05-07T05:03:46;26.08;;;8.02;;
42866;SDS011;39461;40.948;73.006;2023-05-07T05:06:26;28.10;;;8.35;;
42866;SDS011;39461;40.948;73.006;2023-05-07T05:09:01;39.72;;;8.55;;
42866;SDS011;39461;40.948;73.006;2023-05-07T05:11:38;25.67;;;8.13;;
42866;SDS011;39461;40.948;73.006;2023-05-07T05:14:13;26.20;;;8.30;;
42866;SDS011;39461;40.948;73.006;2023-05-07T05:16:48;30.58;;;7.97;;
42866;SDS011;39461;40.948;73.006;2023-05-07T05:19:23;20.58;;;7.43;;
42866;SDS011;39461;40.948;73.006;2023-05-07T05:21:58;31.73;;;8.13;;
42866;SDS011;39461;40.948;73.006;2023-05-07T05:27:34;24.90;;;7.35;;
42866;SDS011;39461;40.948;73.006;2023-05-07T05:30:07;28.17;;;7.30;;
42866;SDS011;39461;40.948;73.006;2023-05-07T05:32:41;24.02;;;8.52;;
42866;SDS011;39461;40.948;73.006;2023-05-07T05:35:14;28.00;;;7.68;;
42866;SDS011;39461;40.948;73.006;2023-05-07T05:37:47;23.38;;;7.18;;
42866;SDS011;39461;40.948;73.006;2023-05-07T05:40:20;26.63;;;7.55;;
42866;SDS011;39461;40.948;73.006;2023-05-07T05:42:53;26.02;;;7.05;;
42866;SDS011;39461;40.948;73.006;2023-05-07T05:45:26;24.92;;;7.28;;
42866;SDS011;39461;40.948;73.006;2023-05-07T05:48:00;27.55;;;7.75;;
42866;SDS011;39461;40.948;73.006;2023-05-07T05:50:33;22.73;;;6.80;;
42866;SDS011;39461;40.948;73.006;2023-05-07T05:53:08;31.58;;;7.45;;
42866;SDS011;39461;40.948;73.006;2023-05-07T05:55:41;32.08;;;7.40;;
42866;SDS011;39461;40.948;73.006;2023-05-07T05:58:15;30.95;;;7.13;;
42866;SDS011;39461;40.948;73.006;2023-05-07T06:00:48;17.35;;;6.88;;
42866;SDS011;39461;40.948;73.006;2023-05-07T06:03:23;19.70;;;6.05;;
42866;SDS011;39461;40.948;73.006;2023-05-07T06:05:56;26.65;;;6.63;;
42866;SDS011;39461;40.948;73.006;2023-05-07T06:08:30;19.02;;;6.50;;
42866;SDS011;39461;40.948;73.006;2023-05-07T06:10:57;21.08;;;5.90;;
42866;SDS011;39461;40.948;73.006;2023-05-07T06:13:33;21.58;;;5.60;;
42866;SDS011;39461;40.948;73.006;2023-05-07T06:16:08;23.05;;;5.32;;
42866;SDS011;39461;40.948;73.006;2023-05-07T06:18:43;23.75;;;4.85;;
42866;SDS011;39461;40.948;73.006;2023-05-07T06:21:18;14.43;;;4.72;;
42866;SDS011;39461;40.948;73.006;2023-05-07T06:23:51;24.27;;;6.05;;
42866;SDS011;39461;40.948;73.006;2023-05-07T06:26:26;19.15;;;4.70;;
42866;SDS011;39461;40.948;73.006;2023-05-07T06:28:59;15.95;;;4.00;;
42866;SDS011;39461;40.948;73.006;2023-05-07T06:31:32;24.05;;;5.28;;
42866;SDS011;39461;40.948;73.006;2023-05-07T06:34:06;14.40;;;4.22;;
42866;SDS011;39461;40.948;73.006;2023-05-07T06:36:39;12.23;;;4.18;;
42866;SDS011;39461;40.948;73.006;2023-05-07T06:39:14;11.80;;;4.22;;
42866;SDS011;39461;40.948;73.006;2023-05-07T06:41:43;12.43;;;3.95;;
42866;SDS011;39461;40.948;73.006;2023-05-07T06:44:16;39.00;;;7.45;;
42866;SDS011;39461;40.948;73.006;2023-05-07T06:46:51;14.10;;;4.45;;
42866;SDS011;39461;40.948;73.006;2023-05-07T06:49:24;18.05;;;4.53;;
42866;SDS011;39461;40.948;73.006;2023-05-07T06:51:58;19.55;;;5.13;;
42866;SDS011;39461;40.948;73.006;2023-05-07T06:54:31;20.30;;;5.75;;
42866;SDS011;39461;40.948;73.006;2023-05-07T06:57:04;22.10;;;5.10;;
42866;SDS011;39461;40.948;73.006;2023-05-07T06:59:37;21.00;;;5.47;;
42866;SDS011;39461;40.948;73.006;2023-05-07T07:02:11;16.92;;;5.60;;
42866;SDS011;39461;40.948;73.006;2023-05-07T07:04:46;30.85;;;7.13;;
42866;SDS011;39461;40.948;73.006;2023-05-07T07:07:19;27.27;;;6.57;;
42866;SDS011;39461;40.948;73.006;2023-05-07T07:09:52;23.38;;;6.80;;
42866;SDS011;39461;40.948;73.006;2023-05-07T07:12:26;23.80;;;6.80;;
42866;SDS011;39461;40.948;73.006;2023-05-07T07:15:00;20.45;;;7.22;;
42866;SDS011;39461;40.948;73.006;2023-05-07T07:17:34;26.55;;;7.00;;
42866;SDS011;39461;40.948;73.006;2023-05-07T07:20:07;27.13;;;6.22;;
42866;SDS011;39461;40.948;73.006;2023-05-07T07:22:40;24.42;;;6.28;;
42866;SDS011;39461;40.948;73.006;2023-05-07T07:25:22;25.48;;;6.20;;
42866;SDS011;39461;40.948;73.006;2023-05-07T07:27:55;26.13;;;6.55;;
42866;SDS011;39461;40.948;73.006;2023-05-07T07:30:30;20.23;;;6.60;;
42866;SDS011;39461;40.948;73.006;2023-05-07T07:33:03;20.90;;;6.28;;
42866;SDS011;39461;40.948;73.006;2023-05-07T07:35:36;21.45;;;5.47;;
42866;SDS011;39461;40.948;73.006;2023-05-07T07:38:09;20.63;;;5.65;;
42866;SDS011;39461;40.948;73.006;2023-05-07T07:40:42;28.77;;;6.78;;
42866;SDS011;39461;40.948;73.006;2023-05-07T07:43:16;23.95;;;5.63;;
42866;SDS011;39461;40.948;73.006;2023-05-07T07:45:51;27.92;;;5.95;;
42866;SDS011;39461;40.948;73.006;2023-05-07T07:48:24;31.90;;;6.45;;
42866;SDS011;39461;40.948;73.006;2023-05-07T07:50:58;28.20;;;5.60;;
42866;SDS011;39461;40.948;73.006;2023-05-07T07:53:37;17.30;;;5.25;;
42866;SDS011;39461;40.948;73.006;2023-05-07T07:56:12;25.85;;;6.03;;
42866;SDS011;39461;40.948;73.006;2023-05-07T07:58:47;24.05;;;5.05;;
42866;SDS011;39461;40.948;73.006;2023-05-07T08:01:23;19.60;;;5.88;;
42866;SDS011;39461;40.948;73.006;2023-05-07T08:04:00;27.80;;;5.03;;
42866;SDS011;39461;40.948;73.006;2023-05-07T08:06:34;18.10;;;4.90;;
42866;SDS011;39461;40.948;73.006;2023-05-07T08:09:08;21.65;;;5.07;;
42866;SDS011;39461;40.948;73.006;2023-05-07T08:11:41;25.83;;;4.57;;
42866;SDS011;39461;40.948;73.006;2023-05-07T08:14:16;23.27;;;4.57;;
42866;SDS011;39461;40.948;73.006;2023-05-07T08:16:49;14.82;;;4.20;;
42866;SDS011;39461;40.948;73.006;2023-05-07T08:19:22;19.58;;;4.70;;
42866;SDS011;39461;40.948;73.006;2023-05-07T08:21:56;18.85;;;4.30;;
42866;SDS011;39461;40.948;73.006;2023-05-07T08:24:29;13.32;;;4.53;;
42866;SDS011;39461;40.948;73.006;2023-05-07T08:27:02;22.35;;;4.80;;
42866;SDS011;39461;40.948;73.006;2023-05-07T08:29:44;27.45;;;5.88;;
42866;SDS011;39461;40.948;73.006;2023-05-07T08:32:19;22.25;;;4.40;;
42866;SDS011;39461;40.948;73.006;2023-05-07T08:34:52;20.25;;;4.53;;
42866;SDS011;39461;40.948;73.006;2023-05-07T08:37:28;13.98;;;3.85;;
42866;SDS011;39461;40.948;73.006;2023-05-07T08:40:03;18.20;;;4.13;;
42866;SDS011;39461;40.948;73.006;2023-05-07T08:42:36;16.13;;;4.35;;
42866;SDS011;39461;40.948;73.006;2023-05-07T08:45:11;31.90;;;5.18;;
42866;SDS011;39461;40.948;73.006;2023-05-07T08:47:47;20.00;;;4.35;;
42866;SDS011;39461;40.948;73.006;2023-05-07T08:50:24;18.92;;;4.55;;
42866;SDS011;39461;40.948;73.006;2023-05-07T08:52:57;17.60;;;4.15;;
42866;SDS011;39461;40.948;73.006;2023-05-07T08:55:31;19.63;;;4.22;;
42866;SDS011;39461;40.948;73.006;2023-05-07T08:58:07;16.80;;;3.70;;
42866;SDS011;39461;40.948;73.006;2023-05-07T09:00:41;20.73;;;3.78;;
42866;SDS011;39461;40.948;73.006;2023-05-07T09:03:14;25.40;;;4.75;;
42866;SDS011;39461;40.948;73.006;2023-05-07T09:05:48;18.63;;;3.75;;
42866;SDS011;39461;40.948;73.006;2023-05-07T09:08:24;16.60;;;3.30;;
42866;SDS011;39461;40.948;73.006;2023-05-07T09:10:57;15.80;;;4.00;;
42866;SDS011;39461;40.948;73.006;2023-05-07T09:13:36;17.40;;;4.07;;
42866;SDS011;39461;40.948;73.006;2023-05-07T09:16:10;21.63;;;3.88;;
42866;SDS011;39461;40.948;73.006;2023-05-07T09:18:44;16.55;;;3.50;;
42866;SDS011;39461;40.948;73.006;2023-05-07T09:21:18;18.92;;;3.75;;
42866;SDS011;39461;40.948;73.006;2023-05-07T09:23:52;10.18;;;3.28;;
42866;SDS011;39461;40.948;73.006;2023-05-07T09:26:26;16.63;;;4.60;;
42866;SDS011;39461;40.948;73.006;2023-05-07T09:28:59;24.33;;;3.70;;
42866;SDS011;39461;40.948;73.006;2023-05-07T09:31:36;13.35;;;4.03;;
42866;SDS011;39461;40.948;73.006;2023-05-07T09:34:04;24.58;;;4.10;;
42866;SDS011;39461;40.948;73.006;2023-05-07T09:36:37;12.43;;;3.55;;
42866;SDS011;39461;40.948;73.006;2023-05-07T09:39:10;19.00;;;3.95;;
42866;SDS011;39461;40.948;73.006;2023-05-07T09:41:45;16.75;;;4.03;;
42866;SDS011;39461;40.948;73.006;2023-05-07T09:44:18;12.48;;;3.65;;
42866;SDS011;39461;40.948;73.006;2023-05-07T09:46:53;14.73;;;3.78;;
42866;SDS011;39461;40.948;73.006;2023-05-07T09:49:33;9.60;;;3.10;;
42866;SDS011;39461;40.948;73.006;2023-05-07T09:52:06;17.67;;;4.20;;
42866;SDS011;39461;40.948;73.006;2023-05-07T09:54:40;11.50;;;3.50;;
42866;SDS011;39461;40.948;73.006;2023-05-07T09:57:17;17.77;;;4.50;;
42866;SDS011;39461;40.948;73.006;2023-05-07T09:59:52;20.42;;;4.22;;
42866;SDS011;39461;40.948;73.006;2023-05-07T10:02:26;13.05;;;4.18;;
42866;SDS011;39461;40.948;73.006;2023-05-07T10:05:01;20.33;;;4.55;;
42866;SDS011;39461;40.948;73.006;2023-05-07T10:07:40;15.52;;;4.03;;
42866;SDS011;39461;40.948;73.006;2023-05-07T10:10:13;21.08;;;4.15;;
42866;SDS011;39461;40.948;73.006;2023-05-07T10:12:47;15.80;;;3.95;;
42866;SDS011;39461;40.948;73.006;2023-05-07T10:15:21;12.18;;;4.63;;
42866;SDS011;39461;40.948;73.006;2023-05-07T10:17:56;17.85;;;4.63;;
42866;SDS011;39461;40.948;73.006;2023-05-07T10:20:23;10.20;;;3.90;;
42866;SDS011;39461;40.948;73.006;2023-05-07T10:22:58;19.60;;;4.13;;
42866;SDS011;39461;40.948;73.006;2023-05-07T10:25:32;12.57;;;4.25;;
42866;SDS011;39461;40.948;73.006;2023-05-07T10:28:06;11.63;;;3.35;;
42866;SDS011;39461;40.948;73.006;2023-05-07T10:33:26;10.65;;;3.72;;
42866;SDS011;39461;40.948;73.006;2023-05-07T10:36:00;15.02;;;3.40;;
42866;SDS011;39461;40.948;73.006;2023-05-07T10:38:35;17.20;;;5.22;;
42866;SDS011;39461;40.948;73.006;2023-05-07T10:41:05;21.02;;;4.22;;
42866;SDS011;39461;40.948;73.006;2023-05-07T10:51:37;18.85;;;3.90;;
42866;SDS011;39461;40.948;73.006;2023-05-07T10:56:51;19.00;;;4.35;;
42866;SDS011;39461;40.948;73.006;2023-05-07T10:59:33;19.05;;;4.15;;
42866;SDS011;39461;40.948;73.006;2023-05-07T11:02:08;16.75;;;3.95;;
42866;SDS011;39461;40.948;73.006;2023-05-07T11:07:41;22.52;;;4.40;;
42866;SDS011;39461;40.948;73.006;2023-05-07T11:13:42;23.42;;;4.00;;
42866;SDS011;39461;40.948;73.006;2023-05-07T11:16:17;13.45;;;4.07;;
42866;SDS011;39461;40.948;73.006;2023-05-07T11:18:53;17.65;;;4.03;;
42866;SDS011;39461;40.948;73.006;2023-05-07T11:21:37;23.20;;;4.32;;
42866;SDS011;39461;40.948;73.006;2023-05-07T11:24:14;19.60;;;4.53;;
42866;SDS011;39461;40.948;73.006;2023-05-07T11:26:49;24.83;;;4.95;;
42866;SDS011;39461;40.948;73.006;2023-05-07T11:29:22;18.25;;;4.45;;
42866;SDS011;39461;40.948;73.006;2023-05-07T11:31:56;37.30;;;6.30;;
42866;SDS011;39461;40.948;73.006;2023-05-07T11:34:30;16.90;;;5.60;;
42866;SDS011;39461;40.948;73.006;2023-05-07T11:37:03;24.67;;;5.63;;
42866;SDS011;39461;40.948;73.006;2023-05-07T11:39:41;18.02;;;4.85;;
42866;SDS011;39461;40.948;73.006;2023-05-07T11:44:59;23.55;;;6.57;;
42866;SDS011;39461;40.948;73.006;2023-05-07T11:47:33;16.30;;;5.10;;
42866;SDS011;39461;40.948;73.006;2023-05-07T11:50:07;27.65;;;4.85;;
42866;SDS011;39461;40.948;73.006;2023-05-07T11:52:52;18.08;;;5.55;;
42866;SDS011;39461;40.948;73.006;2023-05-07T11:55:29;26.85;;;5.72;;
42866;SDS011;39461;40.948;73.006;2023-05-07T11:58:02;14.43;;;4.80;;
42866;SDS011;39461;40.948;73.006;2023-05-07T12:00:35;22.10;;;5.50;;
42866;SDS011;39461;40.948;73.006;2023-05-07T12:03:09;19.27;;;5.38;;
42866;SDS011;39461;40.948;73.006;2023-05-07T12:05:42;21.80;;;5.82;;
42866;SDS011;39461;40.948;73.006;2023-05-07T12:08:16;17.50;;;5.45;;
42866;SDS011;39461;40.948;73.006;2023-05-07T12:10:54;18.20;;;5.22;;
42866;SDS011;39461;40.948;73.006;2023-05-07T12:13:27;18.85;;;5.10;;
42866;SDS011;39461;40.948;73.006;2023-05-07T12:16:06;26.85;;;7.65;;
42866;SDS011;39461;40.948;73.006;2023-05-07T12:18:39;15.82;;;6.72;;
42866;SDS011;39461;40.948;73.006;2023-05-07T12:21:07;21.00;;;6.55;;
42866;SDS011;39461;40.948;73.006;2023-05-07T12:23:40;25.13;;;6.35;;
42866;SDS011;39461;40.948;73.006;2023-05-07T12:26:13;26.20;;;7.05;;
42866;SDS011;39461;40.948;73.006;2023-05-07T12:28:46;25.73;;;6.05;;
42866;SDS011;39461;40.948;73.006;2023-05-07T12:31:19;24.80;;;5.60;;
42866;SDS011;39461;40.948;73.006;2023-05-07T12:33:52;25.65;;;6.10;;
42866;SDS011;39461;40.948;73.006;2023-05-07T12:36:26;23.42;;;6.03;;
42866;SDS011;39461;40.948;73.006;2023-05-07T12:38:59;23.98;;;7.13;;
42866;SDS011;39461;40.948;73.006;2023-05-07T12:41:27;30.08;;;7.18;;
42866;SDS011;39461;40.948;73.006;2023-05-07T12:44:04;25.73;;;6.47;;
42866;SDS011;39461;40.948;73.006;2023-05-07T12:46:39;25.42;;;6.20;;
42866;SDS011;39461;40.948;73.006;2023-05-07T12:49:14;38.97;;;6.47;;
42866;SDS011;39461;40.948;73.006;2023-05-07T12:51:51;27.92;;;6.60;;
42866;SDS011;39461;40.948;73.006;2023-05-07T12:54:30;17.63;;;5.20;;
42866;SDS011;39461;40.948;73.006;2023-05-07T12:57:12;19.52;;;6.93;;
42866;SDS011;39461;40.948;73.006;2023-05-07T12:59:45;26.30;;;7.05;;
42866;SDS011;39461;40.948;73.006;2023-05-07T13:02:18;33.15;;;8.75;;
42866;SDS011;39461;40.948;73.006;2023-05-07T13:04:51;48.78;;;10.90;;
42866;SDS011;39461;40.948;73.006;2023-05-07T13:07:25;30.10;;;9.07;;
42866;SDS011;39461;40.948;73.006;2023-05-07T13:09:58;48.95;;;10.60;;
42866;SDS011;39461;40.948;73.006;2023-05-07T13:12:32;35.63;;;10.70;;
42866;SDS011;39461;40.948;73.006;2023-05-07T13:15:07;40.28;;;10.07;;
42866;SDS011;39461;40.948;73.006;2023-05-07T13:17:40;37.25;;;9.95;;
42866;SDS011;39461;40.948;73.006;2023-05-07T13:20:14;44.08;;;10.18;;
42866;SDS011;39461;40.948;73.006;2023-05-07T13:22:54;42.22;;;9.57;;
42866;SDS011;39461;40.948;73.006;2023-05-07T13:25:27;49.20;;;11.75;;
42866;SDS011;39461;40.948;73.006;2023-05-07T13:28:00;40.47;;;12.93;;
42866;SDS011;39461;40.948;73.006;2023-05-07T13:30:34;36.10;;;11.10;;
42866;SDS011;39461;40.948;73.006;2023-05-07T13:33:08;34.45;;;10.80;;
42866;SDS011;39461;40.948;73.006;2023-05-07T13:35:47;34.60;;;11.88;;
42866;SDS011;39461;40.948;73.006;2023-05-07T13:38:20;36.63;;;10.52;;
42866;SDS011;39461;40.948;73.006;2023-05-07T13:40:59;32.22;;;9.35;;
42866;SDS011;39461;40.948;73.006;2023-05-07T13:43:35;37.50;;;9.40;;
42866;SDS011;39461;40.948;73.006;2023-05-07T13:46:08;29.92;;;9.20;;
42866;SDS011;39461;40.948;73.006;2023-05-07T13:48:41;31.98;;;9.88;;
42866;SDS011;39461;40.948;73.006;2023-05-07T13:51:14;29.27;;;10.40;;
42866;SDS011;39461;40.948;73.006;2023-05-07T13:53:47;35.92;;;11.55;;
42866;SDS011;39461;40.948;73.006;2023-05-07T13:56:14;31.95;;;11.32;;
42866;SDS011;39461;40.948;73.006;2023-05-07T13:58:47;30.75;;;11.85;;
42866;SDS011;39461;40.948;73.006;2023-05-07T14:01:22;38.30;;;10.88;;
42866;SDS011;39461;40.948;73.006;2023-05-07T14:04:02;36.75;;;11.73;;
42866;SDS011;39461;40.948;73.006;2023-05-07T14:06:39;36.33;;;11.68;;
42866;SDS011;39461;40.948;73.006;2023-05-07T14:09:11;36.40;;;12.00;;
42866;SDS011;39461;40.948;73.006;2023-05-07T14:11:43;35.35;;;7.53;;
42866;SDS011;39461;40.948;73.006;2023-05-07T14:14:22;17.58;;;5.38;;
42866;SDS011;39461;40.948;73.006;2023-05-07T14:16:55;30.42;;;4.47;;
42866;SDS011;39461;40.948;73.006;2023-05-07T14:19:28;15.48;;;3.63;;
42866;SDS011;39461;40.948;73.006;2023-05-07T14:22:01;50.30;;;5.15;;
42866;SDS011;39461;40.948;73.006;2023-05-07T14:24:34;65.00;;;5.65;;
42866;SDS011;39461;40.948;73.006;2023-05-07T14:27:14;37.85;;;4.45;;
42866;SDS011;39461;40.948;73.006;2023-05-07T14:29:47;47.08;;;8.48;;
42866;SDS011;39461;40.948;73.006;2023-05-07T14:32:22;27.70;;;5.25;;
42866;SDS011;39461;40.948;73.006;2023-05-07T14:34:55;39.33;;;6.07;;
42866;SDS011;39461;40.948;73.006;2023-05-07T14:37:31;23.52;;;3.60;;
42866;SDS011;39461;40.948;73.006;2023-05-07T14:40:07;27.80;;;4.43;;
42866;SDS011;39461;40.948;73.006;2023-05-07T14:42:35;26.08;;;4.00;;
42866;SDS011;39461;40.948;73.006;2023-05-07T14:45:08;25.65;;;4.30;;
42866;SDS011;39461;40.948;73.006;2023-05-07T14:47:41;26.55;;;4.90;;
42866;SDS011;39461;40.948;73.006;2023-05-07T14:50:14;18.33;;;4.03;;
42866;SDS011;39461;40.948;73.006;2023-05-07T14:52:48;20.02;;;3.97;;
42866;SDS011;39461;40.948;73.006;2023-05-07T14:55:22;16.35;;;3.72;;
42866;SDS011;39461;40.948;73.006;2023-05-07T14:57:50;27.05;;;5.72;;
42866;SDS011;39461;40.948;73.006;2023-05-07T15:00:19;17.05;;;4.38;;
42866;SDS011;39461;40.948;73.006;2023-05-07T15:02:54;12.55;;;4.20;;
42866;SDS011;39461;40.948;73.006;2023-05-07T15:05:31;12.70;;;3.97;;
42866;SDS011;39461;40.948;73.006;2023-05-07T15:08:06;15.15;;;5.03;;
42866;SDS011;39461;40.948;73.006;2023-05-07T15:10:42;12.32;;;3.83;;
42866;SDS011;39461;40.948;73.006;2023-05-07T15:13:18;13.18;;;4.40;;
42866;SDS011;39461;40.948;73.006;2023-05-07T15:15:47;10.82;;;3.72;;
42866;SDS011;39461;40.948;73.006;2023-05-07T15:18:21;11.43;;;4.22;;
42866;SDS011;39461;40.948;73.006;2023-05-07T15:20:55;14.23;;;4.18;;
42866;SDS011;39461;40.948;73.006;2023-05-07T15:23:31;11.85;;;4.13;;
42866;SDS011;39461;40.948;73.006;2023-05-07T15:26:08;18.83;;;4.40;;
42866;SDS011;39461;40.948;73.006;2023-05-07T15:28:44;10.55;;;3.83;;
42866;SDS011;39461;40.948;73.006;2023-05-07T15:31:19;11.00;;;4.10;;
42866;SDS011;39461;40.948;73.006;2023-05-07T15:33:54;14.73;;;3.83;;
42866;SDS011;39461;40.948;73.006;2023-05-07T15:36:30;8.52;;;3.30;;